Terminal Aerodrome Forecast
Issued by NWS Amarillo, TX

Home | Current Version | Previous Version | Text Only | Print | Product List | Glossary On
Versions: 1 2 3 4 5 6 7 8 9 10 11 12 13 14 15 16 17 18 19 20 21 22 23 24 25 26 27 28 29 30
000
FTUS44 KAMA 031700 RRA
TAFAMA
TAF
KAMA 031752Z 0318/0418 28010KT P6SM SCT100 OVC250
     FM032300 08013KT P6SM SCT040 OVC100
     FM040100 08013KT 5SM -RA BR SCT005 OVC012
     FM040700 07015G22KT 4SM -FZRASN BR OVC004
     FM041000 04020G30KT 2SM -SN BR OVC003=

USA.gov is the U.S. government's official web portal to all federal, state and local government web resources and services.